Terminal Aerodrome Forecast
Issued by NWS

Home | Current Version | Previous Version | Text Only | Print | Product List | Glossary Off
Versions: 1 2 3 4 5 6 7 8 9 10 11 12 13 14

000
FTUS43 KUNR 251120
TAFGCC
TAF
KGCC 251120Z 2512/2612 30006KT P6SM OVC070
      TEMPO 2512/2515 -SHRA OVC050
     FM251500 02005KT P6SM OVC100
     FM260000 14006KT P6SM BKN120 OVC250=

USA.gov is the U.S. government's official web portal to all federal, state and local government web resources and services.